Time;durP1;ratioP1;P1;durP2;ratioP2;P2;SDS_P1;SDS_P2;PMS_P1;PMS_P2;Temp;Humidity;BMP_temperature;BMP_pressure;BME280_temperature;BME280_humidity;BME280_pressure;Samples;Min_cycle;Max_cycle;Signal;HPM_P1;HPM_P2
2023/08/29 00:00:17;;;;;;;2.70;2.47;;;13.50;99.90;;;;;;5090855;28;21778;-75
2023/08/29 00:02:43;;;;;;;4.33;2.70;;;13.40;99.90;;;;;;5088821;28;20624;-75
2023/08/29 00:05:12;;;;;;;2.53;2.37;;;13.40;99.90;;;;;;5090347;28;20617;-75
2023/08/29 00:07:39;;;;;;;2.10;1.93;;;13.40;99.90;;;;;;5090654;28;20636;-75
2023/08/29 00:10:08;;;;;;;3.20;2.27;;;13.50;99.90;;;;;;5088989;28;21243;-75
2023/08/29 00:12:35;;;;;;;2.17;1.70;;;13.60;99.90;;;;;;5090767;28;20624;-75
2023/08/29 00:15:04;;;;;;;2.60;2.07;;;13.50;99.90;;;;;;5089575;28;20659;-75
2023/08/29 00:17:31;;;;;;;1.90;1.80;;;13.50;99.90;;;;;;5089656;28;20678;-75
2023/08/29 00:19:58;;;;;;;2.20;2.10;;;13.50;99.90;;;;;;5089740;28;20722;-75
2023/08/29 00:22:24;;;;;;;1.90;1.80;;;13.40;99.90;;;;;;5091076;28;21299;-75
2023/08/29 00:24:52;;;;;;;2.63;1.93;;;13.40;99.90;;;;;;5089013;28;20617;-75
2023/08/29 00:27:20;;;;;;;2.70;2.50;;;13.50;99.90;;;;;;5090208;28;20625;-75
2023/08/29 00:29:47;;;;;;;3.47;2.60;;;13.60;99.90;;;;;;5089531;28;20624;-75
2023/08/29 00:32:14;;;;;;;1.83;1.60;;;13.60;99.90;;;;;;5089777;28;21288;-75
2023/08/29 00:34:41;;;;;;;2.77;2.00;;;13.60;99.90;;;;;;5089745;28;20655;-75
2023/08/29 00:37:07;;;;;;;2.17;2.00;;;13.70;99.90;;;;;;5089158;28;20624;-75
2023/08/29 00:39:34;;;;;;;2.50;2.23;;;13.70;99.90;;;;;;5089520;28;20974;-75
2023/08/29 00:42:02;;;;;;;2.33;2.13;;;13.60;99.90;;;;;;5089311;28;20630;-75
2023/08/29 00:44:30;;;;;;;8.00;2.90;;;13.60;99.90;;;;;;5089260;28;20712;-75
2023/08/29 00:46:58;;;;;;;2.43;2.20;;;13.60;99.90;;;;;;5090031;28;20632;-75
2023/08/29 00:49:27;;;;;;;2.43;2.10;;;13.70;99.90;;;;;;5089142;28;20975;-75
2023/08/29 00:51:55;;;;;;;2.03;1.83;;;13.60;99.90;;;;;;5088973;28;20640;-75
2023/08/29 00:54:22;;;;;;;2.60;2.40;;;13.70;99.90;;;;;;5087861;28;20650;-75
2023/08/29 00:56:49;;;;;;;3.10;2.80;;;13.70;99.90;;;;;;5089994;28;21206;-75
2023/08/29 00:59:16;;;;;;;2.93;2.73;;;13.60;99.90;;;;;;5088796;28;20636;-75
2023/08/29 01:01:46;;;;;;;3.17;2.87;;;13.60;99.90;;;;;;5089007;28;20621;-74
2023/08/29 01:04:13;;;;;;;2.30;2.10;;;13.70;99.90;;;;;;5088898;28;20639;-75
2023/08/29 01:06:40;;;;;;;2.80;2.60;;;13.60;99.90;;;;;;5088623;28;21127;-75
2023/08/29 01:09:08;;;;;;;2.70;2.50;;;13.50;99.90;;;;;;5088647;28;20633;-75
2023/08/29 01:11:42;;;;;;;2.40;2.23;;;13.60;99.90;;;;;;5088597;28;20682;-75
2023/08/29 01:14:21;;;;;;;2.80;2.60;;;13.60;99.90;;;;;;5089408;28;21059;-75
2023/08/29 01:16:57;;;;;;;2.03;1.90;;;13.70;99.90;;;;;;5070235;28;20620;-75
2023/08/29 01:19:25;;;;;;;4.60;2.67;;;13.60;99.90;;;;;;5088056;28;20698;-75
2023/08/29 01:22:01;;;;;;;3.20;2.90;;;13.50;99.90;;;;;;5089293;28;20620;-75
2023/08/29 01:24:38;;;;;;;3.83;3.53;;;13.50;99.90;;;;;;5089243;28;21090;-75
2023/08/29 01:27:08;;;;;;;3.30;2.90;;;13.60;99.90;;;;;;5089184;28;20631;-75
2023/08/29 01:29:37;;;;;;;2.50;2.30;;;13.50;99.90;;;;;;5087978;28;21061;-75
2023/08/29 01:32:04;;;;;;;2.63;2.43;;;13.50;99.90;;;;;;5089100;28;21204;-75
2023/08/29 01:34:32;;;;;;;3.07;2.53;;;13.40;99.90;;;;;;5089094;28;20993;-75
2023/08/29 01:37:00;;;;;;;3.03;2.83;;;13.40;99.90;;;;;;5089409;28;20643;-75
2023/08/29 01:39:27;;;;;;;2.40;2.10;;;13.50;99.90;;;;;;5088445;28;20624;-75
2023/08/29 01:41:55;;;;;;;2.33;2.23;;;13.50;99.90;;;;;;5069469;28;20609;-75
2023/08/29 01:44:24;;;;;;;2.83;2.63;;;13.60;99.90;;;;;;5087584;28;20915;-74
2023/08/29 01:46:51;;;;;;;6.27;2.47;;;13.50;99.90;;;;;;5088915;28;21195;-74
2023/08/29 01:49:19;;;;;;;2.50;2.37;;;13.50;99.90;;;;;;5087843;28;20739;-74
2023/08/29 01:51:46;;;;;;;2.67;2.47;;;13.50;99.90;;;;;;5088132;28;20630;-74
2023/08/29 01:54:12;;;;;;;2.70;2.50;;;13.50;99.90;;;;;;5088229;28;20624;-74
2023/08/29 01:56:40;;;;;;;2.80;2.60;;;13.50;99.90;;;;;;5087677;28;20628;-74
2023/08/29 01:59:08;;;;;;;3.50;2.90;;;13.40;99.90;;;;;;5088357;28;20903;-75
2023/08/29 02:01:39;;;;;;;2.90;2.63;;;13.50;99.90;;;;;;5087197;28;21179;-75
2023/08/29 02:04:06;;;;;;;2.53;2.33;;;13.50;99.90;;;;;;5088753;28;20740;-75
2023/08/29 02:06:33;;;;;;;3.13;2.93;;;13.50;99.90;;;;;;5087661;28;20690;-75
2023/08/29 02:09:00;;;;;;;2.43;2.23;;;13.60;99.90;;;;;;5087596;28;21184;-75
2023/08/29 02:11:26;;;;;;;2.50;2.30;;;13.50;99.90;;;;;;5087412;28;20616;-75
2023/08/29 02:13:53;;;;;;;2.90;2.70;;;13.50;99.90;;;;;;5088389;28;20682;-75
2023/08/29 02:16:21;;;;;;;3.37;3.07;;;13.40;99.90;;;;;;5088294;28;20652;-75
2023/08/29 02:18:50;;;;;;;2.67;2.47;;;13.40;99.90;;;;;;5088057;28;21022;-75
2023/08/29 02:21:17;;;;;;;3.37;3.07;;;13.30;99.90;;;;;;5086931;28;20771;-75
2023/08/29 02:23:45;;;;;;;3.63;3.33;;;13.40;99.90;;;;;;5088407;28;20629;-75
2023/08/29 02:26:12;;;;;;;2.50;2.30;;;13.40;99.90;;;;;;5088147;28;21216;-75
2023/08/29 02:28:40;;;;;;;3.40;3.10;;;13.30;99.90;;;;;;5084665;28;21215;-75
2023/08/29 02:31:09;;;;;;;3.50;2.63;;;13.30;99.90;;;;;;5086500;28;20640;-75
2023/08/29 02:33:38;;;;;;;3.20;2.90;;;13.40;99.90;;;;;;5087471;28;21214;-75
2023/08/29 02:36:07;;;;;;;2.93;2.70;;;13.30;99.90;;;;;;5087506;28;20640;-75
2023/08/29 02:38:36;;;;;;;2.80;2.60;;;13.30;99.90;;;;;;5087830;28;20625;-75
2023/08/29 02:41:03;;;;;;;3.33;3.03;;;13.40;99.90;;;;;;5087238;28;20649;-75
2023/08/29 02:43:31;;;;;;;2.93;2.63;;;13.50;99.90;;;;;;5087984;28;20821;-75
2023/08/29 02:46:00;;;;;;;3.43;3.13;;;13.50;99.90;;;;;;5086922;28;22517;-75
2023/08/29 02:48:27;;;;;;;3.90;3.27;;;13.50;99.90;;;;;;5087278;28;20624;-75
2023/08/29 02:50:54;;;;;;;3.60;3.30;;;13.50;99.90;;;;;;5086669;28;20623;-75
2023/08/29 02:53:23;;;;;;;3.47;3.00;;;13.50;99.90;;;;;;5087392;28;20640;-75
2023/08/29 02:55:51;;;;;;;3.47;2.80;;;13.50;99.90;;;;;;5086412;28;20660;-76
2023/08/29 02:58:19;;;;;;;3.50;3.30;;;13.60;99.90;;;;;;5087025;28;21203;-75
2023/08/29 03:00:47;;;;;;;3.10;2.60;;;13.50;99.90;;;;;;5086885;28;20678;-75
2023/08/29 03:03:14;;;;;;;3.00;2.80;;;13.60;99.90;;;;;;5086275;28;20627;-75
2023/08/29 03:05:42;;;;;;;2.83;2.63;;;13.50;99.90;;;;;;5086776;28;20620;-75
2023/08/29 03:08:09;;;;;;;3.10;2.80;;;13.50;99.90;;;;;;5086813;28;20647;-75
2023/08/29 03:10:38;;;;;;;3.53;3.23;;;13.50;99.90;;;;;;5086243;28;20632;-75
2023/08/29 03:13:05;;;;;;;3.00;2.70;;;13.60;99.90;;;;;;5086738;28;20707;-75
2023/08/29 03:15:33;;;;;;;3.47;3.17;;;13.60;99.90;;;;;;5087100;28;20644;-75
2023/08/29 03:18:00;;;;;;;3.60;3.00;;;13.70;99.90;;;;;;5086417;28;20625;-75
2023/08/29 03:20:27;;;;;;;3.00;2.80;;;13.70;99.90;;;;;;5085937;28;20956;-75
2023/08/29 03:22:53;;;;;;;3.40;3.10;;;13.70;99.90;;;;;;5087142;28;20677;-75
2023/08/29 03:25:21;;;;;;;4.17;3.77;;;13.70;99.90;;;;;;5087204;28;20647;-75
2023/08/29 03:27:50;;;;;;;3.90;3.60;;;13.70;99.90;;;;;;5087372;28;20626;-75
2023/08/29 03:30:17;;;;;;;3.47;3.27;;;13.70;99.90;;;;;;5086020;28;20992;-76
2023/08/29 03:32:49;;;;;;;3.70;3.00;;;13.80;99.90;;;;;;5086706;28;20663;-76
2023/08/29 03:35:16;;;;;;;3.20;3.00;;;13.90;99.90;;;;;;5086328;28;21049;-75
2023/08/29 03:37:42;;;;;;;3.30;3.10;;;13.90;99.90;;;;;;5087181;28;20628;-75
2023/08/29 03:40:11;;;;;;;4.07;3.33;;;13.80;99.90;;;;;;5085844;28;20632;-75
2023/08/29 03:42:37;;;;;;;2.80;2.60;;;13.70;99.90;;;;;;5086332;28;21231;-75
2023/08/29 03:45:07;;;;;;;4.20;3.90;;;13.60;99.90;;;;;;5086822;28;20627;-75
2023/08/29 03:47:35;;;;;;;3.10;2.90;;;13.60;99.90;;;;;;5086296;28;20640;-75
2023/08/29 03:50:02;;;;;;;3.80;3.50;;;13.50;99.90;;;;;;5086398;28;20627;-75
2023/08/29 03:52:29;;;;;;;3.40;3.10;;;13.40;99.90;;;;;;5086562;28;20627;-75
2023/08/29 03:54:56;;;;;;;4.30;3.47;;;13.50;99.90;;;;;;5086473;28;20628;-75
2023/08/29 03:57:23;;;;;;;3.10;2.83;;;13.50;99.90;;;;;;5085719;28;20635;-75
2023/08/29 03:59:50;;;;;;;3.57;3.27;;;13.50;99.90;;;;;;5086076;28;20620;-75
2023/08/29 04:02:19;;;;;;;4.27;3.87;;;13.50;99.90;;;;;;5085813;28;20637;-75
2023/08/29 04:04:46;;;;;;;3.40;3.10;;;13.40;99.90;;;;;;5087241;28;20963;-75
2023/08/29 04:07:13;;;;;;;3.80;3.50;;;13.40;99.90;;;;;;5086389;28;20624;-75
2023/08/29 04:09:41;;;;;;;3.63;3.33;;;13.40;99.90;;;;;;5085295;28;20686;-75
2023/08/29 04:12:10;;;;;;;4.60;3.50;;;13.40;99.90;;;;;;5086651;28;21868;-75
2023/08/29 04:14:36;;;;;;;3.87;3.57;;;13.30;99.90;;;;;;5086712;28;21554;-75
2023/08/29 04:17:04;;;;;;;3.67;3.33;;;13.30;99.90;;;;;;5085948;28;20663;-75
2023/08/29 04:19:33;;;;;;;4.20;3.80;;;13.30;99.90;;;;;;5085950;28;20640;-75
2023/08/29 04:22:00;;;;;;;3.37;3.07;;;13.30;99.90;;;;;;5086598;28;21250;-75
2023/08/29 04:24:28;;;;;;;4.80;3.77;;;13.30;99.90;;;;;;5085348;28;21315;-75
2023/08/29 04:26:55;;;;;;;4.10;3.70;;;13.30;99.90;;;;;;5086528;28;21102;-75
2023/08/29 04:29:22;;;;;;;4.57;4.13;;;13.30;99.90;;;;;;5088599;28;21329;-75
2023/08/29 04:31:48;;;;;;;3.87;3.57;;;13.30;99.90;;;;;;5090516;28;20639;-75
2023/08/29 04:34:15;;;;;;;4.30;3.77;;;13.40;99.90;;;;;;5089953;28;20624;-75
2023/08/29 04:36:45;;;;;;;5.77;5.00;;;13.40;99.90;;;;;;5089075;28;21249;-75
2023/08/29 04:39:11;;;;;;;4.73;4.33;;;13.40;99.90;;;;;;5089207;28;20637;-75
2023/08/29 04:41:39;;;;;;;3.53;3.23;;;13.30;99.90;;;;;;5090564;28;20632;-75
2023/08/29 04:44:06;;;;;;;4.70;4.30;;;13.30;99.90;;;;;;5089636;28;20634;-75
2023/08/29 04:46:32;;;;;;;4.10;3.80;;;13.40;99.90;;;;;;5089459;28;20631;-75
2023/08/29 04:48:59;;;;;;;3.60;3.30;;;13.40;99.90;;;;;;5089541;28;20670;-75
2023/08/29 04:51:26;;;;;;;4.83;4.30;;;13.40;99.90;;;;;;5089472;28;20775;-75
2023/08/29 04:53:54;;;;;;;5.33;4.83;;;13.40;99.90;;;;;;5090088;28;20659;-75
2023/08/29 04:56:21;;;;;;;5.17;4.67;;;13.30;99.90;;;;;;5090183;28;20663;-75
2023/08/29 04:58:48;;;;;;;7.10;5.10;;;13.40;99.90;;;;;;5089510;28;20621;-75
2023/08/29 05:01:14;;;;;;;5.23;4.43;;;13.50;99.90;;;;;;5088622;28;20634;-75
2023/08/29 05:03:41;;;;;;;4.93;4.53;;;13.50;99.90;;;;;;5087817;28;20629;-75
2023/08/29 05:06:08;;;;;;;5.63;5.13;;;13.40;99.90;;;;;;5089790;28;20623;-75
2023/08/29 05:08:36;;;;;;;5.37;4.83;;;13.40;99.90;;;;;;5088837;28;20640;-75
2023/08/29 05:11:05;;;;;;;7.03;5.40;;;13.50;99.90;;;;;;5089177;28;20625;-75
2023/08/29 05:13:31;;;;;;;6.23;5.70;;;13.50;99.90;;;;;;5089617;28;21147;-75
2023/08/29 05:15:58;;;;;;;6.70;5.50;;;13.40;99.90;;;;;;5089025;28;20653;-75
2023/08/29 05:18:25;;;;;;;7.10;6.00;;;13.50;99.90;;;;;;5089131;28;20968;-75
2023/08/29 05:20:52;;;;;;;7.70;5.57;;;13.50;99.90;;;;;;5088080;28;21173;-75
2023/08/29 05:23:18;;;;;;;5.00;4.50;;;13.40;99.90;;;;;;5089644;28;20627;-75
2023/08/29 05:25:45;;;;;;;6.23;4.90;;;13.40;99.90;;;;;;5088992;28;20625;-75
2023/08/29 05:28:13;;;;;;;8.20;6.13;;;13.40;99.90;;;;;;5089300;28;20643;-75
2023/08/29 05:30:40;;;;;;;6.13;5.13;;;13.40;99.90;;;;;;5088850;28;20637;-75
2023/08/29 05:33:07;;;;;;;7.23;5.60;;;13.50;99.90;;;;;;5088900;28;20620;-75
2023/08/29 05:35:34;;;;;;;5.63;5.10;;;13.50;99.90;;;;;;5088369;28;20640;-75
2023/08/29 05:38:00;;;;;;;6.73;6.10;;;13.40;99.90;;;;;;5089049;28;20627;-75
2023/08/29 05:40:27;;;;;;;7.07;5.67;;;13.40;99.90;;;;;;5088023;28;20991;-75
2023/08/29 05:42:54;;;;;;;6.97;6.37;;;13.40;99.90;;;;;;5088429;28;20632;-75
2023/08/29 05:45:22;;;;;;;7.73;6.50;;;13.30;99.90;;;;;;5088579;28;20661;-75
2023/08/29 05:47:49;;;;;;;8.27;7.47;;;13.40;99.90;;;;;;5087535;28;20625;-75
2023/08/29 05:50:16;;;;;;;8.53;7.10;;;13.40;99.90;;;;;;5087665;28;20977;-75
2023/08/29 05:52:42;;;;;;;7.40;6.63;;;13.40;99.90;;;;;;5089118;28;20628;-75
2023/08/29 05:55:09;;;;;;;6.20;5.60;;;13.40;99.90;;;;;;5088328;28;20643;-75
2023/08/29 05:57:36;;;;;;;6.83;6.20;;;13.50;99.90;;;;;;5088519;28;20661;-75
2023/08/29 06:00:07;;;;;;;6.63;5.83;;;13.50;99.90;;;;;;5087105;28;20627;-75
2023/08/29 06:02:35;;;;;;;6.53;5.83;;;13.60;99.90;;;;;;5086688;28;20621;-75
2023/08/29 06:05:02;;;;;;;9.33;6.00;;;13.60;99.90;;;;;;5088550;28;20629;-75
2023/08/29 06:07:29;;;;;;;7.50;5.93;;;13.50;99.90;;;;;;5086032;28;20632;-75
2023/08/29 06:09:56;;;;;;;5.70;5.20;;;13.50;99.90;;;;;;5087458;28;20628;-75
2023/08/29 06:12:22;;;;;;;6.23;5.63;;;13.40;99.90;;;;;;5083631;28;20627;-75
2023/08/29 06:14:49;;;;;;;9.17;7.07;;;13.50;99.90;;;;;;5079453;28;21375;-76
2023/08/29 06:17:16;;;;;;;7.27;6.10;;;13.50;99.90;;;;;;5087254;28;20660;-76
2023/08/29 06:19:44;;;;;;;9.33;7.07;;;13.60;99.90;;;;;;5086692;28;20624;-76
2023/08/29 06:22:11;;;;;;;8.47;7.67;;;13.60;99.90;;;;;;5087543;28;20723;-76
2023/08/29 06:24:38;;;;;;;7.10;6.40;;;13.70;99.90;;;;;;5087293;28;20623;-76
2023/08/29 06:27:05;;;;;;;9.00;6.47;;;13.60;99.90;;;;;;5087338;28;21232;-76
2023/08/29 06:29:32;;;;;;;6.00;5.47;;;13.60;99.90;;;;;;5087395;28;20625;-76
2023/08/29 06:31:59;;;;;;;7.37;6.60;;;13.60;99.90;;;;;;5087361;28;20627;-77
2023/08/29 06:34:25;;;;;;;9.63;6.63;;;13.70;99.90;;;;;;5088543;28;21259;-76
2023/08/29 06:36:54;;;;;;;6.77;6.17;;;13.70;99.90;;;;;;5085270;28;21338;-76
2023/08/29 06:39:20;;;;;;;6.97;5.63;;;13.60;99.90;;;;;;5085452;28;20624;-76
2023/08/29 06:41:47;;;;;;;7.73;6.93;;;13.70;99.90;;;;;;5087742;28;20636;-76
2023/08/29 06:44:14;;;;;;;6.90;6.20;;;13.80;99.90;;;;;;5088063;28;20930;-77
2023/08/29 06:46:41;;;;;;;6.83;6.10;;;13.80;99.90;;;;;;5087465;28;20636;-76
2023/08/29 06:49:08;;;;;;;7.53;6.73;;;13.80;99.90;;;;;;5086025;28;20633;-76
2023/08/29 06:51:35;;;;;;;6.90;6.10;;;13.80;99.90;;;;;;5086050;28;20632;-76
2023/08/29 06:54:04;;;;;;;9.20;7.30;;;13.80;99.90;;;;;;5087391;28;20639;-77
2023/08/29 06:56:30;;;;;;;6.40;5.80;;;13.80;99.90;;;;;;5087470;28;20665;-76
2023/08/29 06:58:58;;;;;;;7.10;6.40;;;13.70;99.90;;;;;;5087745;28;21211;-76
2023/08/29 07:01:25;;;;;;;7.10;6.40;;;13.80;99.90;;;;;;5086283;28;20978;-77
2023/08/29 07:03:53;;;;;;;8.23;6.47;;;13.70;99.90;;;;;;5086544;28;21459;-76
2023/08/29 07:06:19;;;;;;;8.70;7.10;;;13.60;99.90;;;;;;5087128;28;20622;-77
2023/08/29 07:08:47;;;;;;;6.30;5.70;;;13.70;99.90;;;;;;5087460;28;20636;-77
2023/08/29 07:11:16;;;;;;;8.33;6.37;;;13.60;99.90;;;;;;5086468;28;20631;-76
2023/08/29 07:13:43;;;;;;;7.10;6.40;;;13.60;99.90;;;;;;5087098;28;20624;-76
2023/08/29 07:16:09;;;;;;;6.50;5.60;;;13.60;99.90;;;;;;5086363;28;20631;-76
2023/08/29 07:18:36;;;;;;;7.20;6.50;;;13.60;99.90;;;;;;5086396;28;20640;-76
2023/08/29 07:21:03;;;;;;;8.10;6.77;;;13.70;99.90;;;;;;5086370;28;20631;-76
2023/08/29 07:23:31;;;;;;;6.63;5.93;;;13.70;99.90;;;;;;5086124;28;20643;-77
2023/08/29 07:25:59;;;;;;;7.40;6.40;;;13.80;99.90;;;;;;5087157;28;20687;-76
2023/08/29 07:28:27;;;;;;;6.93;6.33;;;13.80;99.90;;;;;;5086572;28;20722;-77
2023/08/29 07:30:54;;;;;;;6.47;5.87;;;13.90;99.90;;;;;;5085666;28;21230;-77
2023/08/29 07:33:21;;;;;;;10.20;7.87;;;13.90;99.90;;;;;;5086436;28;21274;-77
2023/08/29 07:35:48;;;;;;;8.10;6.80;;;14.00;99.90;;;;;;5084339;28;20636;-76
2023/08/29 07:38:16;;;;;;;8.17;6.53;;;13.90;99.90;;;;;;5083315;28;20659;-76
2023/08/29 07:40:45;;;;;;;7.57;6.70;;;14.00;99.90;;;;;;5085705;28;20668;-77
2023/08/29 07:43:12;;;;;;;7.07;6.37;;;14.00;99.90;;;;;;5086511;28;20640;-76
2023/08/29 07:45:40;;;;;;;9.30;6.67;;;14.20;99.90;;;;;;5086599;28;20631;-76
2023/08/29 07:48:07;;;;;;;7.37;6.57;;;14.20;99.90;;;;;;5086438;28;20620;-76
2023/08/29 07:50:35;;;;;;;7.03;6.37;;;14.20;99.90;;;;;;5081987;28;20628;-76
2023/08/29 07:53:01;;;;;;;6.70;6.00;;;14.00;99.90;;;;;;5084333;28;20631;-76
2023/08/29 07:55:28;;;;;;;7.27;6.37;;;14.00;99.90;;;;;;5086249;28;20620;-76
2023/08/29 07:57:56;;;;;;;6.77;6.10;;;14.10;99.90;;;;;;5086579;28;20683;-76
2023/08/29 08:00:24;;;;;;;6.10;5.50;;;14.00;99.90;;;;;;5085194;28;20668;-76
2023/08/29 08:02:53;;;;;;;6.67;5.80;;;14.00;99.90;;;;;;5086063;28;20713;-76
2023/08/29 08:05:24;;;;;;;7.07;6.20;;;14.10;99.90;;;;;;5089532;28;20635;-76
2023/08/29 08:07:50;;;;;;;6.77;6.17;;;14.10;99.90;;;;;;5089854;28;21587;-75
2023/08/29 08:10:18;;;;;;;5.70;5.07;;;14.10;99.90;;;;;;5088883;28;20632;-75
2023/08/29 08:12:47;;;;;;;6.33;5.77;;;14.10;99.90;;;;;;5090165;28;21270;-75
2023/08/29 08:15:14;;;;;;;7.00;6.27;;;14.10;99.90;;;;;;5090200;28;20632;-75
2023/08/29 08:17:41;;;;;;;6.30;5.70;;;14.20;99.90;;;;;;5089874;28;20644;-75
2023/08/29 08:20:12;;;;;;;6.10;4.90;;;14.20;99.90;;;;;;5089708;28;20628;-75
2023/08/29 08:22:42;;;;;;;5.90;5.40;;;14.20;99.90;;;;;;5090201;28;20617;-75
2023/08/29 08:25:10;;;;;;;9.33;5.27;;;14.40;99.90;;;;;;5089506;28;20613;-75
2023/08/29 08:27:40;;;;;;;7.60;6.30;;;14.20;99.90;;;;;;5089106;28;20619;-75
2023/08/29 08:30:08;;;;;;;5.93;5.23;;;14.30;99.90;;;;;;5088742;28;20636;-76
2023/08/29 08:32:35;;;;;;;9.20;5.57;;;14.30;99.90;;;;;;5090690;28;20631;-75
2023/08/29 08:35:04;;;;;;;5.70;5.20;;;14.30;99.90;;;;;;5090215;28;21510;-75
2023/08/29 08:37:34;;;;;;;5.37;4.87;;;14.40;99.90;;;;;;5090527;28;20743;-75
2023/08/29 08:40:09;;;;;;;6.77;6.17;;;14.40;99.90;;;;;;5088728;28;20638;-75
2023/08/29 08:42:37;;;;;;;7.70;6.90;;;14.40;99.90;;;;;;5089819;28;20620;-74
2023/08/29 08:45:07;;;;;;;7.40;6.70;;;14.30;99.90;;;;;;5089836;28;21272;-75
2023/08/29 08:47:40;;;;;;;6.23;5.70;;;14.30;99.90;;;;;;5090313;28;20647;-75
2023/08/29 08:50:09;;;;;;;7.03;6.30;;;14.40;99.90;;;;;;5088544;28;20631;-74
2023/08/29 08:52:40;;;;;;;7.40;6.60;;;14.50;99.90;;;;;;5089291;28;20627;-75
2023/08/29 08:55:08;;;;;;;7.90;7.10;;;14.40;99.90;;;;;;5089374;28;21418;-75
2023/08/29 08:57:35;;;;;;;6.80;6.13;;;14.20;99.90;;;;;;5089766;28;21176;-75
2023/08/29 09:00:02;;;;;;;7.70;7.00;;;14.30;99.90;;;;;;5089372;28;20637;-75
2023/08/29 09:02:33;;;;;;;6.30;5.70;;;14.40;99.90;;;;;;5088356;28;20978;-75
2023/08/29 09:05:00;;;;;;;8.03;7.30;;;14.50;99.90;;;;;;5089104;28;20723;-75
2023/08/29 09:07:27;;;;;;;7.10;6.40;;;14.50;99.90;;;;;;5089155;28;20666;-75
2023/08/29 09:10:09;;;;;;;7.07;6.47;;;14.40;99.90;;;;;;5088057;28;20632;-75
2023/08/29 09:12:36;;;;;;;7.30;6.57;;;14.30;99.90;;;;;;5089703;28;20657;-75
2023/08/29 09:15:05;;;;;;;7.00;6.40;;;14.50;99.90;;;;;;5087958;28;20623;-75
2023/08/29 09:17:32;;;;;;;8.27;6.17;;;14.50;99.90;;;;;;5088703;28;20656;-75
2023/08/29 09:20:00;;;;;;;7.00;6.30;;;14.30;99.90;;;;;;5088178;28;20717;-75
2023/08/29 09:22:28;;;;;;;8.30;7.60;;;14.40;99.90;;;;;;5088240;28;20627;-75
2023/08/29 09:25:02;;;;;;;8.17;7.40;;;14.50;99.90;;;;;;5089075;28;20622;-75
2023/08/29 09:27:30;;;;;;;7.70;6.60;;;14.70;99.90;;;;;;5089048;28;20707;-75
2023/08/29 09:30:07;;;;;;;7.90;6.03;;;14.60;99.90;;;;;;5088023;28;20961;-75
2023/08/29 09:32:34;;;;;;;8.10;7.07;;;14.70;99.90;;;;;;5089142;28;20622;-75
2023/08/29 09:35:01;;;;;;;7.27;6.53;;;14.60;99.90;;;;;;5089398;28;20624;-75
2023/08/29 09:37:30;;;;;;;8.10;7.30;;;14.60;99.90;;;;;;5088944;28;20892;-75
2023/08/29 09:39:56;;;;;;;7.23;6.53;;;14.50;99.90;;;;;;5088776;28;21133;-75
2023/08/29 09:42:23;;;;;;;7.27;6.53;;;14.30;99.90;;;;;;5087987;28;20630;-75
2023/08/29 09:44:51;;;;;;;7.63;6.93;;;14.40;99.90;;;;;;5088282;28;20632;-75
2023/08/29 09:47:23;;;;;;;6.00;5.43;;;14.50;99.90;;;;;;5088380;28;21401;-75
2023/08/29 09:49:50;;;;;;;6.90;6.30;;;14.50;99.90;;;;;;5087782;28;20620;-75
2023/08/29 09:52:18;;;;;;;7.50;6.37;;;14.40;99.90;;;;;;5088173;28;21184;-75
2023/08/29 09:54:48;;;;;;;6.83;6.13;;;14.50;99.90;;;;;;5087651;28;20631;-75
2023/08/29 09:57:18;;;;;;;8.50;7.13;;;14.40;99.90;;;;;;5087196;28;20653;-75
2023/08/29 09:59:45;;;;;;;7.67;6.97;;;14.50;99.90;;;;;;5087426;28;20628;-75
2023/08/29 10:02:14;;;;;;;7.17;6.47;;;14.70;99.90;;;;;;5086817;28;20666;-76
2023/08/29 10:04:45;;;;;;;7.83;7.17;;;14.80;99.90;;;;;;5087211;28;20651;-75
2023/08/29 10:07:15;;;;;;;7.50;6.80;;;14.90;99.90;;;;;;5087856;28;20627;-75
2023/08/29 10:09:43;;;;;;;7.50;6.80;;;15.00;99.90;;;;;;5087896;28;20986;-75
2023/08/29 10:12:11;;;;;;;8.87;7.40;;;15.00;99.90;;;;;;5087597;28;21731;-75
2023/08/29 10:14:39;;;;;;;8.40;7.40;;;15.10;99.90;;;;;;5087834;28;20628;-76
2023/08/29 10:17:07;;;;;;;9.63;8.67;;;15.00;99.90;;;;;;5088357;28;20659;-75
2023/08/29 10:19:38;;;;;;;11.73;10.00;;;15.10;99.90;;;;;;5087193;28;21154;-75
2023/08/29 10:22:07;;;;;;;8.83;7.40;;;15.10;99.90;;;;;;5087897;28;20625;-75
2023/08/29 10:24:36;;;;;;;8.83;7.63;;;15.10;99.90;;;;;;5087496;28;20620;-76
2023/08/29 10:27:04;;;;;;;7.40;6.70;;;15.10;99.90;;;;;;5086942;28;20642;-76
2023/08/29 10:29:34;;;;;;;7.43;6.73;;;14.90;99.90;;;;;;5087009;28;21432;-77
2023/08/29 10:32:02;;;;;;;7.03;6.33;;;15.00;99.90;;;;;;5087681;28;21255;-76
2023/08/29 10:34:29;;;;;;;7.50;6.80;;;15.10;99.90;;;;;;5087392;28;20623;-76
2023/08/29 10:36:58;;;;;;;7.10;6.33;;;15.40;99.90;;;;;;5087431;28;21113;-76
2023/08/29 10:39:26;;;;;;;8.53;7.73;;;15.50;99.90;;;;;;5086785;28;21242;-76
2023/08/29 10:41:57;;;;;;;7.87;7.07;;;15.40;99.90;;;;;;5087088;28;20624;-76
2023/08/29 10:44:36;;;;;;;6.50;5.93;;;15.70;99.90;;;;;;5087922;28;21581;-76
2023/08/29 10:47:19;;;;;;;8.10;7.33;;;15.80;99.90;;;;;;5087137;28;20615;-76
2023/08/29 10:49:46;;;;;;;7.00;6.30;;;15.90;99.90;;;;;;5086679;28;20786;-76
2023/08/29 10:52:18;;;;;;;7.30;6.60;;;16.00;99.90;;;;;;5087800;28;20919;-76
2023/08/29 10:54:46;;;;;;;6.47;5.77;;;16.00;99.90;;;;;;5087963;28;20683;-76
2023/08/29 10:57:26;;;;;;;6.57;5.97;;;15.80;99.90;;;;;;5086667;28;20631;-76
2023/08/29 10:59:53;;;;;;;8.23;7.47;;;16.00;99.90;;;;;;5087004;28;20623;-76
2023/08/29 11:02:29;;;;;;;7.33;6.67;;;15.70;99.90;;;;;;5086388;28;21560;-76
2023/08/29 11:05:11;;;;;;;7.30;6.60;;;15.50;99.90;;;;;;5087183;28;20793;-76
2023/08/29 11:07:40;;;;;;;5.67;5.17;;;15.40;99.90;;;;;;5086641;28;20646;-76
2023/08/29 11:10:23;;;;;;;6.77;6.17;;;15.60;99.90;;;;;;5085764;28;20638;-76
2023/08/29 11:13:07;;;;;;;6.93;6.30;;;15.50;99.90;;;;;;5085675;28;21185;-76
2023/08/29 11:16:06;;;;;;;7.90;7.10;;;15.50;99.90;;;;;;5086810;28;20631;-76
2023/08/29 11:18:33;;;;;;;7.80;7.00;;;15.40;99.90;;;;;;5070407;28;20718;-75
2023/08/29 11:21:07;;;;;;;7.10;6.40;;;15.40;99.90;;;;;;5084797;28;20675;-76
2023/08/29 11:23:38;;;;;;;8.20;7.33;;;15.30;99.90;;;;;;5086636;28;20619;-76
2023/08/29 11:26:06;;;;;;;8.23;7.40;;;15.10;99.90;;;;;;5086222;28;20628;-76
2023/08/29 11:28:34;;;;;;;8.73;7.60;;;15.00;99.90;;;;;;5086210;28;20728;-76
2023/08/29 11:31:06;;;;;;;8.10;7.30;;;15.00;99.90;;;;;;5086526;28;20632;-76
2023/08/29 11:33:34;;;;;;;9.37;7.80;;;15.00;99.90;;;;;;5086054;28;21042;-75
2023/08/29 11:36:02;;;;;;;8.63;7.50;;;15.20;99.90;;;;;;5086903;28;20662;-75
2023/08/29 11:38:30;;;;;;;9.37;8.50;;;15.30;99.90;;;;;;5091017;28;21308;-75
2023/08/29 11:40:59;;;;;;;12.37;9.30;;;15.30;99.90;;;;;;5093033;28;20632;-76
2023/08/29 11:43:27;;;;;;;11.20;9.83;;;15.50;99.90;;;;;;5093303;28;20626;-74
2023/08/29 11:45:57;;;;;;;10.50;8.37;;;15.60;99.90;;;;;;5093267;28;20632;-75
2023/08/29 11:48:28;;;;;;;11.33;9.73;;;15.80;99.90;;;;;;5093154;28;20706;-76
2023/08/29 11:50:56;;;;;;;9.80;8.60;;;15.90;99.90;;;;;;5092566;28;20658;-76
2023/08/29 11:53:24;;;;;;;9.23;8.33;;;16.10;99.90;;;;;;5093797;28;22131;-76
2023/08/29 11:55:51;;;;;;;8.60;7.80;;;16.10;99.90;;;;;;5092815;28;20633;-76
2023/08/29 11:58:20;;;;;;;8.37;7.57;;;16.10;99.90;;;;;;5092718;28;21245;-76
2023/08/29 12:00:49;;;;;;;8.73;7.90;;;16.10;99.90;;;;;;5092681;28;20654;-76
2023/08/29 12:03:20;;;;;;;8.63;7.87;;;16.00;99.90;;;;;;5087979;28;20628;-76
2023/08/29 12:05:47;;;;;;;9.00;8.10;;;15.90;99.90;;;;;;5091436;28;20636;-76
2023/08/29 12:08:14;;;;;;;8.97;8.07;;;16.00;99.90;;;;;;5091166;27;21761;-76
2023/08/29 12:10:51;;;;;;;9.10;7.67;;;16.00;99.90;;;;;;5090525;28;20626;-75
2023/08/29 12:13:21;;;;;;;8.00;7.30;;;15.80;99.90;;;;;;5089731;28;20624;-76
2023/08/29 12:15:48;;;;;;;8.00;7.20;;;15.90;99.90;;;;;;5090446;28;20720;-76
2023/08/29 12:18:22;;;;;;;9.73;8.73;;;15.80;99.90;;;;;;5089984;28;20655;-76
2023/08/29 12:20:49;;;;;;;8.93;8.03;;;15.70;99.90;;;;;;5089578;28;20650;-76
2023/08/29 12:23:25;;;;;;;8.43;7.60;;;15.70;99.90;;;;;;5092150;28;20627;-76
2023/08/29 12:25:55;;;;;;;10.20;8.80;;;15.60;99.90;;;;;;5092903;28;20632;-76
2023/08/29 12:28:24;;;;;;;9.40;8.50;;;15.60;99.90;;;;;;5093035;28;20743;-76
2023/08/29 12:30:56;;;;;;;9.30;8.13;;;15.60;99.90;;;;;;5090683;28;20789;-76
2023/08/29 12:33:23;;;;;;;10.10;9.10;;;15.50;99.90;;;;;;5093153;28;20621;-76
2023/08/29 12:35:51;;;;;;;9.70;8.60;;;15.30;99.90;;;;;;5091964;28;20633;-75
2023/08/29 12:38:18;;;;;;;7.70;7.00;;;15.40;99.90;;;;;;5092803;28;20709;-76
2023/08/29 12:40:45;;;;;;;9.03;8.03;;;15.30;99.90;;;;;;5092722;28;20620;-75
2023/08/29 12:43:12;;;;;;;7.83;6.43;;;15.10;99.90;;;;;;5092391;28;21198;-75
2023/08/29 12:45:41;;;;;;;7.83;7.07;;;15.20;99.90;;;;;;5092993;28;20735;-75
2023/08/29 12:48:08;;;;;;;9.67;8.60;;;15.30;99.90;;;;;;5092955;28;21002;-76
2023/08/29 12:50:35;;;;;;;10.17;8.87;;;15.30;99.90;;;;;;5088032;28;20636;-76